Time;durP1;ratioP1;P1;durP2;ratioP2;P2;SDS_P1;SDS_P2;PMS_P1;PMS_P2;Temp;Humidity;BMP_temperature;BMP_pressure;BME280_temperature;BME280_humidity;BME280_pressure;Samples;Min_cycle;Max_cycle;Signal;HPM_P1;HPM_P2
2021/05/31 04:34:04;;;;;;;13.05;6.00;;;;;;;8.01;77.39;100737.22;5191805;27;20201;-63
2021/05/31 04:36:30;;;;;;;10.82;6.72;;;;;;;8.20;77.37;100733.72;5192647;27;20719;-69
2021/05/31 04:38:55;;;;;;;7.20;4.93;;;;;;;8.40;76.58;100742.47;5196179;27;22442;-65
2021/05/31 04:41:20;;;;;;;10.10;5.20;;;;;;;8.59;76.52;100735.47;5195051;27;20026;-69
2021/05/31 04:43:46;;;;;;;8.40;5.03;;;;;;;8.76;76.75;100737.41;5194552;27;20023;-71
2021/05/31 04:46:11;;;;;;;7.97;3.97;;;;;;;8.89;76.57;100731.75;5175900;27;20276;-69
2021/05/31 04:48:37;;;;;;;5.88;4.35;;;;;;;9.04;76.49;100734.75;5194785;27;20034;-69
2021/05/31 04:51:02;;;;;;;7.55;4.50;;;;;;;9.14;75.72;100730.25;5194220;27;37397;-61
2021/05/31 04:53:28;;;;;;;7.53;4.35;;;;;;;9.25;75.53;100726.56;5192884;27;20042;-69
2021/05/31 04:55:54;;;;;;;6.22;4.38;;;;;;;9.37;75.70;100724.50;5194693;27;20478;-70
2021/05/31 04:58:20;;;;;;;10.15;4.95;;;;;;;9.52;75.96;100732.00;5194905;27;20019;-71
2021/05/31 05:00:45;;;;;;;9.65;5.28;;;;;;;9.73;75.91;100729.88;5195429;27;20391;-62
2021/05/31 05:03:10;;;;;;;10.55;4.72;;;;;;;9.94;75.84;100723.41;5194912;27;20387;-67
2021/05/31 05:05:36;;;;;;;10.50;5.70;;;;;;;10.16;75.76;100720.25;5194767;27;20485;-64
2021/05/31 05:08:01;;;;;;;10.48;5.25;;;;;;;10.33;75.25;100725.72;5194501;27;20037;-64
2021/05/31 05:10:27;;;;;;;10.55;4.75;;;;;;;10.47;74.94;100722.53;5182200;27;20028;-70
2021/05/31 05:12:52;;;;;;;9.20;4.88;;;;;;;10.63;75.19;100723.59;5172981;27;40437;-69
2021/05/31 05:15:19;;;;;;;8.75;4.97;;;;;;;10.78;74.24;100726.53;5155489;27;20031;-70
2021/05/31 05:17:45;;;;;;;12.07;6.38;;;;;;;10.88;73.96;100729.06;5173953;27;20119;-71
2021/05/31 05:20:11;;;;;;;11.90;5.53;;;;;;;10.97;74.07;100718.28;5173911;27;20069;-66
2021/05/31 05:22:37;;;;;;;9.05;4.90;;;;;;;11.10;73.51;100728.50;5137475;27;20399;-65
2021/05/31 05:25:03;;;;;;;8.50;5.00;;;;;;;11.16;73.17;100724.38;5174142;27;20391;-66
2021/05/31 05:27:28;;;;;;;8.75;4.40;;;;;;;11.21;72.76;100721.19;5173154;27;20023;-68
2021/05/31 05:29:53;;;;;;;9.25;4.15;;;;;;;11.25;72.81;100725.22;5173168;27;20538;-69
2021/05/31 05:32:19;;;;;;;10.13;4.72;;;;;;;11.29;72.06;100721.22;5153659;27;20376;-72
2021/05/31 05:34:44;;;;;;;10.27;5.00;;;;;;;11.43;71.98;100730.47;5173473;27;20047;-65
2021/05/31 05:37:32;;;;;;;8.90;4.30;;;;;;;11.57;72.04;100723.66;5154421;27;20031;-71
2021/05/31 05:40:52;;;;;;;8.00;3.97;;;;;;;11.72;72.27;100731.84;5172622;27;20032;-68
2021/05/31 05:43:38;;;;;;;9.38;4.47;;;;;;;11.88;72.02;100728.34;5168353;27;20031;-67
2021/05/31 05:45:47;;;;;;;17.65;8.25;;;;;;;12.03;71.29;100726.75;5146354;27;20035;-61
2021/05/31 05:48:12;;;;;;;12.00;4.95;;;;;;;12.19;71.00;100720.53;5158872;27;20050;-67
2021/05/31 05:50:38;;;;;;;8.00;3.92;;;;;;;12.29;70.03;100723.06;5123261;27;20039;-66
2021/05/31 05:53:03;;;;;;;8.50;4.53;;;;;;;12.34;70.05;100726.91;5158442;27;38040;-67
2021/05/31 05:55:28;;;;;;;8.88;4.50;;;;;;;12.45;69.64;100723.03;5158327;27;33424;-74
2021/05/31 05:57:55;;;;;;;7.43;4.32;;;;;;;12.53;69.39;100722.19;5140589;27;22228;-67
2021/05/31 06:00:22;;;;;;;12.43;5.55;;;;;;;12.67;69.70;100715.28;5179497;27;20038;-63
2021/05/31 06:02:47;;;;;;;9.48;4.80;;;;;;;12.86;69.40;100717.59;5179431;27;20106;-66
2021/05/31 06:05:14;;;;;;;6.97;4.78;;;;;;;12.99;68.29;100722.38;5177947;27;37514;-67
2021/05/31 06:07:39;;;;;;;7.25;5.00;;;;;;;13.14;68.15;100721.66;5179510;27;20075;-66
2021/05/31 06:10:05;;;;;;;9.88;5.53;;;;;;;13.28;68.36;100728.13;5160519;27;20091;-67
2021/05/31 06:12:30;;;;;;;10.70;7.28;;;;;;;13.47;68.20;100717.00;5179212;27;20103;-65
2021/05/31 06:14:56;;;;;;;14.23;7.18;;;;;;;13.62;67.27;100721.59;5160929;27;20026;-68
2021/05/31 06:17:21;;;;;;;9.23;6.07;;;;;;;13.69;66.57;100723.38;5179589;27;20026;-66
2021/05/31 06:19:47;;;;;;;11.23;7.53;;;;;;;13.76;66.54;100720.00;5159876;27;36058;-70
2021/05/31 06:22:12;;;;;;;14.60;7.53;;;;;;;13.80;65.43;100729.34;5178680;27;33593;-64
2021/05/31 06:24:37;;;;;;;14.88;7.93;;;;;;;13.87;65.30;100728.47;5179420;27;20027;-69
2021/05/31 06:27:03;;;;;;;13.88;8.00;;;;;;;13.87;64.79;100727.63;5160154;27;20027;-71
2021/05/31 06:29:29;;;;;;;14.52;8.55;;;;;;;14.02;65.27;100735.72;5160100;27;20094;-68
2021/05/31 06:31:54;;;;;;;11.85;7.65;;;;;;;14.17;64.93;100731.22;5179147;27;20035;-67
2021/05/31 06:34:20;;;;;;;15.50;7.85;;;;;;;14.35;64.63;100727.38;5179661;27;20027;-68
2021/05/31 06:36:48;;;;;;;12.30;6.60;;;;;;;14.55;64.79;100733.88;5178623;27;33897;-67
2021/05/31 06:39:13;;;;;;;9.80;6.43;;;;;;;14.80;64.44;100727.47;5179011;27;20027;-66
2021/05/31 06:41:39;;;;;;;13.23;5.65;;;;;;;15.04;64.29;100729.03;5160083;27;26285;-63
2021/05/31 06:44:04;;;;;;;8.63;4.47;;;;;;;15.12;62.82;100736.97;5160327;27;20026;-65
2021/05/31 06:46:30;;;;;;;8.88;4.95;;;;;;;15.23;63.16;100728.44;5179130;27;20049;-63
2021/05/31 06:48:55;;;;;;;9.40;4.25;;;;;;;15.33;62.34;100728.16;5179309;27;20162;-69
2021/05/31 06:51:21;;;;;;;6.55;4.00;;;;;;;15.46;62.44;100730.16;5179114;27;20324;-66
2021/05/31 06:53:46;;;;;;;9.15;4.07;;;;;;;15.56;61.90;100721.81;5178291;27;20370;-66
2021/05/31 06:56:11;;;;;;;9.30;3.83;;;;;;;15.71;62.24;100724.44;5178037;27;20047;-66
2021/05/31 06:58:37;;;;;;;5.65;3.50;;;;;;;15.87;61.69;100720.72;5178558;27;34173;-69
2021/05/31 07:01:03;;;;;;;9.18;3.22;;;;;;;16.01;61.23;100722.47;5160384;27;20352;-67
2021/05/31 07:03:28;;;;;;;8.63;3.63;;;;;;;16.06;60.23;100717.38;5179189;27;20371;-65
2021/05/31 07:05:53;;;;;;;9.15;3.80;;;;;;;16.24;60.91;100719.56;5178852;27;20042;-69
2021/05/31 07:08:21;;;;;;;7.22;3.10;;;;;;;16.43;60.00;100725.31;5178742;27;20029;-63
2021/05/31 07:10:47;;;;;;;7.03;3.33;;;;;;;16.52;59.68;100718.72;5139460;27;20046;-66
2021/05/31 07:13:12;;;;;;;9.65;6.40;;;;;;;16.71;59.68;100730.66;5157577;27;20476;-67
2021/05/31 07:15:39;;;;;;;6.38;3.30;;;;;;;16.84;58.77;100724.53;5139354;27;20032;-65
2021/05/31 07:18:05;;;;;;;5.10;2.95;;;;;;;16.91;58.35;100722.72;5157205;27;20042;-62
2021/05/31 07:20:30;;;;;;;4.95;2.90;;;;;;;16.95;57.33;100722.31;5138656;27;20050;-65
2021/05/31 07:22:56;;;;;;;4.65;3.10;;;;;;;16.96;56.96;100721.31;5157119;27;26600;-65
2021/05/31 07:25:21;;;;;;;6.53;2.67;;;;;;;17.00;56.74;100727.94;5155808;27;24136;-64
2021/05/31 07:27:46;;;;;;;5.07;2.80;;;;;;;17.12;55.91;100723.66;5157308;27;20030;-64
2021/05/31 07:30:13;;;;;;;6.43;3.17;;;;;;;17.23;55.89;100727.63;5156956;27;20102;-65
2021/05/31 07:32:39;;;;;;;6.68;3.00;;;;;;;17.41;56.04;100737.84;5154997;27;20039;-65
2021/05/31 07:35:06;;;;;;;9.55;3.08;;;;;;;17.66;56.33;100738.13;5157331;27;20034;-68
2021/05/31 07:37:31;;;;;;;5.85;3.20;;;;;;;17.96;55.62;100732.41;5156982;27;20027;-66
2021/05/31 07:39:57;;;;;;;7.63;3.00;;;;;;;18.16;55.11;100729.72;5164663;27;20019;-64
2021/05/31 07:42:22;;;;;;;6.78;3.15;;;;;;;18.41;55.13;100729.09;5159283;27;20031;-64
2021/05/31 07:44:47;;;;;;;6.97;3.17;;;;;;;18.68;54.33;100720.97;5158657;27;20035;-66
2021/05/31 07:47:13;;;;;;;5.18;3.05;;;;;;;18.76;53.70;100718.84;5176632;27;38942;-67
2021/05/31 07:49:38;;;;;;;7.20;3.30;;;;;;;18.98;53.87;100712.41;5177511;27;20030;-68
2021/05/31 07:52:19;;;;;;;9.30;4.57;;;;;;;19.23;52.96;100705.25;5177819;27;20031;-68
2021/05/31 07:54:45;;;;;;;8.95;4.45;;;;;;;19.38;52.81;100712.22;5177550;27;20023;-66
2021/05/31 07:57:10;;;;;;;5.05;2.83;;;;;;;19.67;52.20;100712.66;5159216;27;20030;-68
2021/05/31 07:59:36;;;;;;;6.40;3.10;;;;;;;19.88;51.05;100706.94;5177255;27;25666;-65
2021/05/31 08:02:01;;;;;;;7.75;2.78;;;;;;;19.95;50.61;100712.31;5177382;27;20023;-70
2021/05/31 08:04:26;;;;;;;6.78;2.70;;;;;;;19.98;50.45;100711.03;5177532;27;20030;-65
2021/05/31 08:06:52;;;;;;;5.57;1.95;;;;;;;20.15;49.71;100714.84;5158534;27;20042;-63
2021/05/31 08:09:17;;;;;;;4.38;2.05;;;;;;;20.32;48.35;100709.69;5151097;27;20077;-63
2021/05/31 08:11:43;;;;;;;5.32;2.15;;;;;;;20.32;48.01;100711.59;5105130;27;20027;-62
2021/05/31 08:14:08;;;;;;;6.10;2.17;;;;;;;20.39;47.93;100706.94;5146245;27;20024;-62
2021/05/31 08:16:34;;;;;;;4.88;1.85;;;;;;;20.41;46.05;100705.66;5138793;27;20058;-63
2021/05/31 08:18:59;;;;;;;6.55;2.28;;;;;;;20.68;48.14;100709.97;5117414;27;20329;-62
2021/05/31 08:21:24;;;;;;;4.45;2.00;;;;;;;20.99;45.88;100719.84;5136500;27;20027;-63
2021/05/31 08:23:50;;;;;;;5.45;1.83;;;;;;;21.20;46.92;100702.31;5156084;27;20035;-75
2021/05/31 08:26:19;;;;;;;4.40;1.98;;;;;;;21.36;44.99;100711.69;5137826;27;20031;-67
2021/05/31 08:28:45;;;;;;;4.13;1.63;;;;;;;21.37;44.43;100713.34;5156414;27;20494;-66
2021/05/31 08:31:11;;;;;;;4.30;2.40;;;;;;;21.42;43.95;100704.50;5146865;27;20250;-69
2021/05/31 08:33:36;;;;;;;4.07;2.10;;;;;;;21.61;44.00;100706.16;5099660;27;20051;-66
2021/05/31 08:36:02;;;;;;;3.85;1.70;;;;;;;21.87;43.39;100714.09;5098671;27;33741;-66
2021/05/31 08:38:28;;;;;;;4.32;1.67;;;;;;;22.02;42.77;100709.09;5141460;27;20040;-68
2021/05/31 08:40:53;;;;;;;4.30;1.38;;;;;;;22.31;42.62;100710.03;5156025;27;20035;-66
2021/05/31 08:43:18;;;;;;;4.32;1.65;;;;;;;22.57;41.54;100698.97;5129355;27;31945;-62
2021/05/31 08:45:44;;;;;;;3.97;1.90;;;;;;;22.70;41.30;100687.84;5128851;27;20039;-62
2021/05/31 08:48:10;;;;;;;3.63;1.80;;;;;;;22.88;41.49;100688.75;5098304;27;20079;-62
2021/05/31 08:50:35;;;;;;;3.60;1.88;;;;;;;23.04;40.05;100687.19;5094699;28;20111;-60
2021/05/31 08:53:02;;;;;;;4.60;1.70;;;;;;;23.20;40.27;100683.72;5094212;28;20028;-61
2021/05/31 08:55:28;;;;;;;2.90;1.77;;;;;;;23.59;40.60;100681.19;5094462;28;20787;-62
2021/05/31 08:57:54;;;;;;;5.65;2.10;;;;;;;23.87;39.39;100676.75;5094191;28;20048;-62
2021/05/31 09:00:23;;;;;;;4.28;1.88;;;;;;;23.93;38.18;100678.50;5094615;28;20548;-69
2021/05/31 09:02:49;;;;;;;6.30;2.30;;;;;;;23.91;36.87;100685.28;5094140;28;20442;-61
2021/05/31 09:05:14;;;;;;;4.35;1.50;;;;;;;23.97;37.27;100679.66;5066837;28;20041;-70
2021/05/31 09:07:39;;;;;;;2.63;1.48;;;;;;;24.26;37.73;100676.00;5083740;28;20123;-63
2021/05/31 09:10:06;;;;;;;5.88;1.40;;;;;;;24.38;35.94;100678.63;5068208;28;36001;-65
2021/05/31 09:12:35;;;;;;;4.03;1.65;;;;;;;24.43;35.81;100674.09;5069107;28;20083;-66
2021/05/31 09:15:10;;;;;;;5.60;1.50;;;;;;;24.53;35.77;100669.84;5067013;28;20114;-66
2021/05/31 09:17:35;;;;;;;3.40;1.27;;;;;;;24.59;34.88;100664.22;5077389;28;20025;-65
2021/05/31 09:20:02;;;;;;;3.53;1.60;;;;;;;24.73;34.48;100669.31;5075946;28;20025;-67
2021/05/31 09:22:28;;;;;;;4.97;1.70;;;;;;;24.90;33.89;100667.34;5090559;28;20116;-62
2021/05/31 09:25:01;;;;;;;5.47;1.83;;;;;;;24.91;33.43;100677.19;5091844;28;20060;-68
2021/05/31 09:27:27;;;;;;;3.30;1.35;;;;;;;24.95;32.89;100667.41;5067867;28;20029;-63
2021/05/31 09:29:59;;;;;;;5.07;1.70;;;;;;;25.03;32.63;100674.34;5070745;28;20082;-62
2021/05/31 09:32:25;;;;;;;3.85;1.30;;;;;;;25.32;32.45;100674.91;5094228;28;20044;-61
2021/05/31 09:35:04;;;;;;;3.15;1.30;;;;;;;25.40;31.47;100678.31;5086096;28;20136;-62
2021/05/31 09:37:42;;;;;;;3.47;1.30;;;;;;;25.41;31.16;100655.38;5087132;28;20044;-64
2021/05/31 09:40:08;;;;;;;5.13;1.35;;;;;;;25.12;29.95;100655.59;5071703;28;20545;-60
2021/05/31 09:42:33;;;;;;;4.03;1.40;;;;;;;25.21;29.98;100659.53;5084926;28;20119;-68
2021/05/31 09:45:04;;;;;;;3.42;1.90;;;;;;;25.31;29.52;100658.81;5092055;28;39796;-68
2021/05/31 09:47:32;;;;;;;7.68;3.00;;;;;;;25.33;29.02;100662.16;5097147;28;20063;-66
2021/05/31 09:49:58;;;;;;;4.82;1.75;;;;;;;25.40;29.54;100656.47;5096892;28;20100;-65
2021/05/31 09:52:23;;;;;;;3.05;2.03;;;;;;;25.65;28.92;100662.16;5097118;28;20021;-65
2021/05/31 09:54:50;;;;;;;3.40;1.35;;;;;;;25.91;28.83;100656.91;5096124;28;28174;-64
2021/05/31 09:57:29;;;;;;;2.95;1.40;;;;;;;25.87;27.32;100660.41;5096846;28;20201;-69
2021/05/31 10:00:08;;;;;;;2.40;1.15;;;;;;;25.64;26.70;100660.53;5096214;28;20028;-64
2021/05/31 10:05:32;;;;;;;3.25;1.80;;;;;;;25.39;27.17;100660.28;5095274;28;20033;-66
2021/05/31 10:08:05;;;;;;;4.63;1.80;;;;;;;25.70;27.28;100644.19;5096762;28;20040;-62
2021/05/31 10:10:31;;;;;;;3.78;1.65;;;;;;;25.91;27.22;100650.63;5082899;28;20362;-62
2021/05/31 10:12:57;;;;;;;4.50;2.08;;;;;;;26.13;27.06;100643.16;5076528;28;20079;-65
2021/05/31 10:15:24;;;;;;;6.25;2.45;;;;;;;26.24;26.87;100644.03;5091354;28;20067;-67
2021/05/31 10:17:52;;;;;;;5.55;2.20;;;;;;;26.43;26.73;100646.34;5078537;28;20481;-62
2021/05/31 10:20:17;;;;;;;5.93;2.22;;;;;;;26.48;26.01;100643.63;5096488;28;20051;-69
2021/05/31 10:22:42;;;;;;;4.22;2.00;;;;;;;26.22;26.38;100645.38;5096194;28;29152;-62
2021/05/31 10:25:09;;;;;;;6.70;2.40;;;;;;;26.59;27.39;100642.59;5078112;28;30047;-61
2021/05/31 10:27:35;;;;;;;5.97;2.70;;;;;;;27.11;26.76;100634.59;5078665;28;20195;-61
2021/05/31 10:30:01;;;;;;;5.40;2.28;;;;;;;27.31;26.13;100631.06;5078378;28;20033;-62
2021/05/31 10:32:26;;;;;;;5.07;2.00;;;;;;;27.22;25.95;100635.44;5057687;28;20515;-60
2021/05/31 10:34:55;;;;;;;6.47;2.42;;;;;;;27.54;26.51;100640.69;5075983;28;30784;-65
2021/05/31 10:37:20;;;;;;;4.65;2.40;;;;;;;27.86;26.54;100639.59;5076078;28;20033;-62
2021/05/31 10:40:06;;;;;;;10.50;2.17;;;;;;;28.03;25.99;100629.19;5084595;28;20386;-63
2021/05/31 10:42:51;;;;;;;3.78;1.92;;;;;;;27.98;25.61;100620.13;5096539;28;20037;-62
2021/05/31 10:45:17;;;;;;;8.50;2.40;;;;;;;28.11;25.80;100624.25;5082949;28;20044;-64
2021/05/31 10:47:42;;;;;;;16.60;12.55;;;;;;;28.28;25.50;100623.91;5075793;28;20038;-63
2021/05/31 10:50:14;;;;;;;10.45;3.92;;;;;;;27.97;24.88;100619.31;5079187;28;37688;-62
2021/05/31 10:52:49;;;;;;;6.80;3.30;;;;;;;27.17;24.08;100620.66;5076084;28;20083;-64
2021/05/31 10:55:15;;;;;;;6.68;2.70;;;;;;;26.30;24.21;100625.78;5094506;28;20044;-63
2021/05/31 10:57:41;;;;;;;5.82;2.72;;;;;;;25.75;24.94;100619.66;5095472;28;20029;-63
2021/05/31 11:00:06;;;;;;;4.28;2.65;;;;;;;25.88;26.10;100623.88;5082857;28;32197;-60
2021/05/31 11:02:32;;;;;;;4.70;2.20;;;;;;;26.34;26.53;100616.81;5056968;28;20203;-63
2021/05/31 11:05:08;;;;;;;6.95;2.67;;;;;;;26.74;26.23;100614.53;5040563;28;20029;-63
2021/05/31 11:07:34;;;;;;;4.32;2.20;;;;;;;27.03;25.97;100605.88;5093924;28;20028;-64
2021/05/31 11:09:59;;;;;;;7.43;2.50;;;;;;;27.37;26.35;100610.88;5095584;28;20029;-64
2021/05/31 11:12:31;;;;;;;3.28;1.77;;;;;;;27.66;25.74;100613.84;5094427;28;35647;-66
2021/05/31 11:15:10;;;;;;;3.25;1.67;;;;;;;27.36;24.69;100617.41;5095126;28;20039;-60
2021/05/31 11:17:52;;;;;;;4.78;1.98;;;;;;;27.05;24.71;100608.31;5085498;28;20086;-61
2021/05/31 11:20:18;;;;;;;5.65;1.85;;;;;;;26.88;24.92;100611.31;5075222;28;20396;-60
2021/05/31 11:23:00;;;;;;;4.38;2.10;;;;;;;26.65;24.56;100616.09;5056537;28;20088;-63
2021/05/31 11:25:26;;;;;;;3.50;2.28;;;;;;;26.38;24.94;100610.81;5075483;28;20086;-64
2021/05/31 11:28:02;;;;;;;7.60;2.92;;;;;;;26.63;26.00;100608.19;5074871;28;20025;-60
2021/05/31 11:30:29;;;;;;;7.88;3.15;;;;;;;27.05;26.20;100605.59;5075327;28;20029;-62
2021/05/31 11:32:58;;;;;;;6.95;2.80;;;;;;;27.28;25.96;100596.84;5056441;28;20136;-62
2021/05/31 11:35:24;;;;;;;8.95;2.13;;;;;;;27.40;25.32;100591.16;5093558;28;20043;-63
2021/05/31 11:37:51;;;;;;;5.40;2.15;;;;;;;27.30;24.81;100588.41;5093295;28;20044;-66
2021/05/31 11:40:27;;;;;;;3.85;2.03;;;;;;;27.26;24.75;100599.06;5084920;28;20052;-64
2021/05/31 11:42:54;;;;;;;6.80;2.00;;;;;;;27.15;24.83;100589.22;5084631;28;20130;-63
2021/05/31 11:45:21;;;;;;;4.15;2.03;;;;;;;26.94;24.57;100586.44;5083503;28;20128;-58
2021/05/31 11:47:56;;;;;;;5.72;2.10;;;;;;;26.63;24.34;100597.25;5076781;28;20508;-61
2021/05/31 11:50:22;;;;;;;4.13;2.40;;;;;;;26.35;24.65;100590.31;5075208;28;20343;-59
2021/05/31 11:52:47;;;;;;;4.53;2.30;;;;;;;26.32;25.09;100586.19;5058266;28;20033;-60
2021/05/31 11:55:21;;;;;;;3.88;1.80;;;;;;;26.55;25.39;100586.84;5094474;28;20029;-60
2021/05/31 11:57:46;;;;;;;4.05;1.88;;;;;;;26.76;25.13;100574.09;5085662;28;20025;-60
2021/05/31 12:00:42;;;;;;;6.32;1.83;;;;;;;26.95;25.35;100577.13;5074808;28;20033;-61
2021/05/31 12:03:22;;;;;;;3.60;1.67;;;;;;;26.83;24.03;100573.81;5056637;28;20052;-60
2021/05/31 12:05:48;;;;;;;3.60;1.73;;;;;;;26.17;23.74;100575.19;5056524;28;20033;-60
2021/05/31 12:08:14;;;;;;;3.95;1.98;;;;;;;25.80;23.86;100573.31;5056675;28;20037;-60
2021/05/31 12:10:41;;;;;;;3.75;2.13;;;;;;;25.36;23.77;100573.53;5087961;28;20024;-63
2021/05/31 12:13:07;;;;;;;4.45;1.95;;;;;;;24.97;24.05;100577.22;5095174;28;20078;-63
2021/05/31 12:15:33;;;;;;;3.92;2.20;;;;;;;24.39;23.97;100574.13;5094908;28;20540;-59
2021/05/31 12:18:10;;;;;;;5.35;2.20;;;;;;;24.17;24.81;100574.91;5094629;28;20029;-58
2021/05/31 12:20:36;;;;;;;5.35;2.65;;;;;;;24.23;25.09;100568.44;5111399;28;20102;-58
2021/05/31 12:23:01;;;;;;;6.70;2.05;;;;;;;24.27;25.36;100569.59;5105093;28;20389;-58
2021/05/31 12:25:26;;;;;;;4.60;1.92;;;;;;;24.50;25.46;100559.53;5093879;28;20029;-58
2021/05/31 12:27:52;;;;;;;3.20;1.58;;;;;;;24.66;25.77;100546.97;5093581;28;38089;-61
2021/05/31 12:30:18;;;;;;;8.40;2.10;;;;;;;24.73;25.32;100549.44;5094347;28;20036;-59
2021/05/31 12:32:44;;;;;;;4.75;1.90;;;;;;;24.70;25.27;100548.09;5093848;28;20041;-60
2021/05/31 12:35:09;;;;;;;6.32;1.95;;;;;;;24.49;24.68;100544.25;5093074;28;20055;-60
2021/05/31 12:37:36;;;;;;;4.95;2.25;;;;;;;24.29;25.11;100544.84;5094439;28;20428;-59
2021/05/31 12:40:05;;;;;;;5.30;2.20;;;;;;;24.19;25.08;100550.16;5081277;28;20366;-60
2021/05/31 12:42:30;;;;;;;5.90;1.65;;;;;;;24.39;25.95;100544.16;5094033;28;20033;-59
2021/05/31 12:45:00;;;;;;;4.45;1.70;;;;;;;24.78;26.18;100546.78;5093352;28;35266;-58
2021/05/31 12:47:31;;;;;;;3.55;1.60;;;;;;;25.05;26.16;100548.69;5099393;28;20071;-59
2021/05/31 12:49:59;;;;;;;4.18;1.75;;;;;;;25.17;25.72;100543.91;5096107;28;20446;-58
2021/05/31 12:52:29;;;;;;;3.38;1.40;;;;;;;25.16;25.55;100547.69;5114387;28;20024;-58
2021/05/31 12:55:07;;;;;;;3.85;1.83;;;;;;;25.32;25.59;100541.28;5116818;27;20032;-59
2021/05/31 12:57:38;;;;;;;4.35;1.65;;;;;;;25.32;25.04;100532.31;5118115;28;20120;-60
2021/05/31 13:00:06;;;;;;;2.50;1.42;;;;;;;25.22;24.86;100534.94;5096249;28;20465;-61
2021/05/31 13:02:32;;;;;;;3.47;1.23;;;;;;;25.03;24.34;100539.94;5096348;28;20033;-59
2021/05/31 13:05:02;;;;;;;7.63;1.92;;;;;;;24.66;24.05;100528.69;5105279;28;20033;-59
2021/05/31 13:07:30;;;;;;;;;;;;;;;24.26;24.10;100526.28;5111675;27;20117;-61
2021/05/31 13:10:12;;;;;;;7.93;1.75;;;;;;;24.01;24.52;100532.25;5116572;28;19983;-62
2021/05/31 13:12:50;;;;;;;3.25;2.50;;;;;;;23.96;25.22;100531.09;5116643;28;20024;-66
2021/05/31 13:15:18;;;;;;;5.68;2.70;;;;;;;24.16;25.47;100530.53;5116482;28;20093;-64
2021/05/31 13:17:43;;;;;;;5.03;2.10;;;;;;;24.40;25.54;100527.56;5115935;27;20139;-67
2021/05/31 13:20:13;;;;;;;4.70;2.17;;;;;;;24.69;25.38;100532.81;5098299;28;20078;-66
2021/05/31 13:22:39;;;;;;;6.38;2.30;;;;;;;24.74;25.37;100530.16;5116048;28;20028;-66
2021/05/31 13:25:05;;;;;;;4.38;2.10;;;;;;;24.85;25.66;100528.34;5115947;28;37940;-62
2021/05/31 13:27:32;;;;;;;6.28;2.20;;;;;;;25.08;25.57;100518.19;5116341;28;20591;-62
2021/05/31 13:30:10;;;;;;;6.03;1.92;;;;;;;25.21;25.15;100517.75;5116108;28;20032;-66
2021/05/31 13:32:36;;;;;;;5.53;2.20;;;;;;;25.11;24.95;100523.13;5115911;27;20924;-64
2021/05/31 13:35:04;;;;;;;3.28;1.73;;;;;;;24.85;24.73;100525.63;5116128;28;20028;-64
2021/05/31 13:37:29;;;;;;;5.30;1.88;;;;;;;24.58;24.62;100522.88;5097766;28;20024;-64
2021/05/31 13:39:55;;;;;;;4.30;1.90;;;;;;;24.37;24.56;100527.25;5116285;28;20021;-62
2021/05/31 13:42:21;;;;;;;4.15;1.92;;;;;;;24.09;24.64;100529.09;5115294;27;20117;-62
2021/05/31 13:44:47;;;;;;;4.63;2.10;;;;;;;23.92;25.03;100518.22;5115926;28;20032;-61
2021/05/31 13:47:12;;;;;;;3.80;2.20;;;;;;;23.88;25.26;100519.78;5115820;28;20020;-64
2021/05/31 13:49:38;;;;;;;4.93;2.10;;;;;;;24.01;25.82;100515.91;5097344;28;20477;-64
2021/05/31 13:52:03;;;;;;;3.75;1.83;;;;;;;24.09;25.58;100513.56;5116006;28;23879;-61
2021/05/31 13:54:29;;;;;;;4.22;1.80;;;;;;;24.08;25.42;100511.91;5112222;28;41996;-60
2021/05/31 13:56:54;;;;;;;3.92;1.80;;;;;;;23.93;25.22;100515.25;5095432;28;20056;-62
2021/05/31 13:59:20;;;;;;;3.92;1.90;;;;;;;23.80;25.28;100510.16;5095908;28;20025;-62
2021/05/31 14:01:46;;;;;;;5.28;1.80;;;;;;;23.68;25.35;100507.53;5095473;28;20025;-64
2021/05/31 14:04:12;;;;;;;3.08;1.55;;;;;;;23.68;25.71;100504.00;5077600;28;20032;-64
2021/05/31 14:06:37;;;;;;;7.70;2.03;;;;;;;23.86;25.77;100498.28;5106630;28;20024;-64
2021/05/31 14:09:04;;;;;;;3.30;1.73;;;;;;;23.91;25.68;100495.66;5116369;28;20032;-66
2021/05/31 14:11:30;;;;;;;3.42;1.70;;;;;;;23.94;25.65;100499.78;5115705;28;20020;-66
2021/05/31 14:13:55;;;;;;;2.83;1.50;;;;;;;23.90;25.50;100496.72;5092906;28;20953;-67
2021/05/31 14:16:20;;;;;;;4.97;1.65;;;;;;;23.83;25.54;100504.22;5096155;28;20028;-69
2021/05/31 14:18:46;;;;;;;5.47;1.80;;;;;;;23.45;24.45;100493.06;5096294;28;20054;-64
2021/05/31 14:21:11;;;;;;;4.53;2.03;;;;;;;23.03;24.56;100500.78;5114475;27;20074;-70
2021/05/31 14:23:37;;;;;;;4.43;1.70;;;;;;;22.62;24.61;100499.00;5114563;28;20032;-70
2021/05/31 14:26:02;;;;;;;2.78;1.33;;;;;;;22.32;24.78;100499.16;5113814;28;32585;-76
2021/05/31 14:28:28;;;;;;;4.05;1.40;;;;;;;22.09;25.03;100490.06;5115001;28;20024;-68
2021/05/31 14:30:53;;;;;;;5.70;1.70;;;;;;;22.13;25.57;100493.13;5116938;28;20484;-71
2021/05/31 14:33:18;;;;;;;2.60;1.70;;;;;;;22.24;25.72;100492.25;5111747;27;20074;-75
2021/05/31 14:35:44;;;;;;;6.00;2.92;;;;;;;22.31;25.73;100506.50;5095790;28;34525;-66
2021/05/31 14:38:09;;;;;;;3.17;1.60;;;;;;;22.25;25.44;100507.47;5096893;28;20028;-71
2021/05/31 14:40:35;;;;;;;5.30;1.98;;;;;;;22.22;25.75;100507.13;5096618;28;20028;-72
2021/05/31 14:43:01;;;;;;;5.20;2.10;;;;;;;22.30;26.10;100504.84;5096155;28;20412;-71
2021/05/31 14:45:27;;;;;;;4.43;1.70;;;;;;;22.42;26.10;100498.59;5095975;28;20123;-68
2021/05/31 14:47:53;;;;;;;3.88;1.83;;;;;;;22.40;25.96;100503.44;5095842;28;20025;-67
2021/05/31 14:50:19;;;;;;;5.72;2.03;;;;;;;22.39;26.06;100494.47;5096171;28;20025;-67
2021/05/31 14:52:44;;;;;;;4.82;1.70;;;;;;;22.30;25.86;100498.59;5095766;28;20060;-72
2021/05/31 14:55:10;;;;;;;5.93;2.10;;;;;;;22.24;26.11;100499.56;5095258;28;36071;-70
2021/05/31 14:57:35;;;;;;;3.92;1.75;;;;;;;22.23;25.99;100490.59;5096414;28;20024;-66
2021/05/31 15:00:03;;;;;;;3.33;1.50;;;;;;;22.17;26.03;100491.56;5094533;28;20817;-69
2021/05/31 15:02:29;;;;;;;6.88;1.77;;;;;;;22.11;26.00;100484.38;5096049;28;20504;-74
2021/05/31 15:04:54;;;;;;;6.20;2.80;;;;;;;22.02;26.18;100485.81;5111413;28;35546;-66
2021/05/31 15:07:19;;;;;;;5.35;1.92;;;;;;;21.92;26.04;100483.72;5096223;28;20035;-65
2021/05/31 15:09:45;;;;;;;2.92;1.42;;;;;;;21.83;26.28;100477.84;5111044;28;27471;-66
2021/05/31 15:12:10;;;;;;;5.07;1.80;;;;;;;21.87;26.64;100483.59;5094391;28;20059;-70
2021/05/31 15:14:39;;;;;;;3.65;1.60;;;;;;;21.93;26.67;100478.03;5095728;28;20037;-67
2021/05/31 15:17:06;;;;;;;5.68;2.10;;;;;;;22.07;26.94;100473.19;5094894;28;20032;-73
2021/05/31 15:19:38;;;;;;;3.03;1.50;;;;;;;22.20;26.76;100477.53;5095520;28;20033;-75
2021/05/31 15:22:04;;;;;;;2.63;1.77;;;;;;;22.06;26.38;100470.72;5095150;28;20028;-72
